sensor_id;sensor_type;location;lat;lon;timestamp;pressure;altitude;pressure_sealevel;temperature;humidity
66627;BME280;53498;50.422;14.912;2023-04-27T00:00:02;99269.09;;;5.06;76.04
66627;BME280;53498;50.422;14.912;2023-04-27T00:02:28;99272.69;;;5.11;76.39
66627;BME280;53498;50.422;14.912;2023-04-27T00:04:54;99260.59;;;5.10;76.22
66627;BME280;53498;50.422;14.912;2023-04-27T00:07:20;99264.88;;;5.08;76.10
66627;BME280;53498;50.422;14.912;2023-04-27T00:09:45;99267.16;;;4.97;76.00
66627;BME280;53498;50.422;14.912;2023-04-27T00:12:11;99268.88;;;4.97;76.16
66627;BME280;53498;50.422;14.912;2023-04-27T00:14:37;99268.09;;;4.99;75.90
66627;BME280;53498;50.422;14.912;2023-04-27T00:17:02;99261.28;;;5.03;76.04
66627;BME280;53498;50.422;14.912;2023-04-27T00:19:28;99260.38;;;5.01;75.14
66627;BME280;53498;50.422;14.912;2023-04-27T00:21:54;99261.97;;;4.96;75.44
66627;BME280;53498;50.422;14.912;2023-04-27T00:24:22;99262.94;;;5.01;76.66
66627;BME280;53498;50.422;14.912;2023-04-27T00:26:47;99265.66;;;5.05;76.83
66627;BME280;53498;50.422;14.912;2023-04-27T00:29:13;99263.16;;;5.08;77.21
66627;BME280;53498;50.422;14.912;2023-04-27T00:31:39;99264.75;;;5.03;78.22
66627;BME280;53498;50.422;14.912;2023-04-27T00:34:04;99265.59;;;5.04;79.12
66627;BME280;53498;50.422;14.912;2023-04-27T00:36:32;99267.22;;;4.99;79.25
66627;BME280;53498;50.422;14.912;2023-04-27T00:38:58;99269.63;;;4.93;80.16
66627;BME280;53498;50.422;14.912;2023-04-27T00:41:24;99269.81;;;5.00;80.94
66627;BME280;53498;50.422;14.912;2023-04-27T00:43:49;99277.56;;;5.00;81.33
66627;BME280;53498;50.422;14.912;2023-04-27T00:46:16;99270.97;;;4.78;80.79
66627;BME280;53498;50.422;14.912;2023-04-27T00:48:42;99268.66;;;4.56;81.73
66627;BME280;53498;50.422;14.912;2023-04-27T00:51:09;99266.00;;;4.53;82.13
66627;BME280;53498;50.422;14.912;2023-04-27T00:53:35;99269.75;;;4.64;82.41
66627;BME280;53498;50.422;14.912;2023-04-27T00:56:01;99269.84;;;4.69;82.44
66627;BME280;53498;50.422;14.912;2023-04-27T00:58:27;99269.00;;;4.70;82.66
66627;BME280;53498;50.422;14.912;2023-04-27T01:01:31;99270.22;;;4.51;82.02
66627;BME280;53498;50.422;14.912;2023-04-27T01:03:57;99264.97;;;4.46;82.63
66627;BME280;53498;50.422;14.912;2023-04-27T01:06:23;99265.84;;;4.47;82.50
66627;BME280;53498;50.422;14.912;2023-04-27T01:08:48;99272.09;;;4.56;82.22
66627;BME280;53498;50.422;14.912;2023-04-27T01:11:14;99264.44;;;4.58;82.30
66627;BME280;53498;50.422;14.912;2023-04-27T01:13:40;99271.16;;;4.53;82.67
66627;BME280;53498;50.422;14.912;2023-04-27T01:16:06;99269.50;;;4.55;82.75
66627;BME280;53498;50.422;14.912;2023-04-27T01:18:31;99269.53;;;4.56;83.08
66627;BME280;53498;50.422;14.912;2023-04-27T01:20:58;99264.47;;;4.59;83.09
66627;BME280;53498;50.422;14.912;2023-04-27T01:23:24;99266.25;;;4.62;83.56
66627;BME280;53498;50.422;14.912;2023-04-27T01:25:50;99271.56;;;4.68;83.39
66627;BME280;53498;50.422;14.912;2023-04-27T01:28:16;99273.38;;;4.72;82.64
66627;BME280;53498;50.422;14.912;2023-04-27T01:30:41;99276.81;;;4.71;82.69
66627;BME280;53498;50.422;14.912;2023-04-27T01:33:07;99276.72;;;4.68;83.38
66627;BME280;53498;50.422;14.912;2023-04-27T01:35:33;99284.47;;;4.70;82.95
66627;BME280;53498;50.422;14.912;2023-04-27T01:37:58;99280.31;;;4.73;83.22
66627;BME280;53498;50.422;14.912;2023-04-27T01:40:24;99279.16;;;4.63;80.20
66627;BME280;53498;50.422;14.912;2023-04-27T01:42:50;99279.47;;;4.43;79.63
66627;BME280;53498;50.422;14.912;2023-04-27T01:45:16;99285.44;;;4.41;79.41
66627;BME280;53498;50.422;14.912;2023-04-27T01:47:41;99282.59;;;4.32;78.57
66627;BME280;53498;50.422;14.912;2023-04-27T01:50:07;99286.59;;;4.23;78.96
66627;BME280;53498;50.422;14.912;2023-04-27T01:52:33;99282.56;;;4.31;79.22
66627;BME280;53498;50.422;14.912;2023-04-27T01:54:58;99292.09;;;4.35;79.67
66627;BME280;53498;50.422;14.912;2023-04-27T01:57:24;99277.13;;;4.20;78.71
66627;BME280;53498;50.422;14.912;2023-04-27T01:59:50;99290.81;;;4.19;79.52
66627;BME280;53498;50.422;14.912;2023-04-27T02:02:15;99298.91;;;4.03;80.08
66627;BME280;53498;50.422;14.912;2023-04-27T02:04:41;99297.25;;;4.05;80.35
66627;BME280;53498;50.422;14.912;2023-04-27T02:07:07;99293.31;;;3.87;80.03
66627;BME280;53498;50.422;14.912;2023-04-27T02:09:33;99286.31;;;3.83;79.92
66627;BME280;53498;50.422;14.912;2023-04-27T02:11:58;99291.28;;;3.77;79.12
66627;BME280;53498;50.422;14.912;2023-04-27T02:14:24;99294.94;;;3.85;78.98
66627;BME280;53498;50.422;14.912;2023-04-27T02:16:49;99302.13;;;3.96;79.04
66627;BME280;53498;50.422;14.912;2023-04-27T02:19:15;99312.69;;;3.76;81.08
66627;BME280;53498;50.422;14.912;2023-04-27T02:21:41;99314.47;;;3.79;80.97
66627;BME280;53498;50.422;14.912;2023-04-27T02:24:08;99315.28;;;3.76;81.67
66627;BME280;53498;50.422;14.912;2023-04-27T02:26:34;99311.09;;;3.80;81.16
66627;BME280;53498;50.422;14.912;2023-04-27T02:28:59;99305.00;;;3.78;81.07
66627;BME280;53498;50.422;14.912;2023-04-27T02:31:49;99306.81;;;3.80;80.76
66627;BME280;53498;50.422;14.912;2023-04-27T02:34:15;99306.16;;;3.87;80.28
66627;BME280;53498;50.422;14.912;2023-04-27T02:36:40;99310.94;;;3.75;80.69
66627;BME280;53498;50.422;14.912;2023-04-27T02:39:06;99304.25;;;3.80;80.64
66627;BME280;53498;50.422;14.912;2023-04-27T02:41:31;99305.94;;;3.80;80.57
66627;BME280;53498;50.422;14.912;2023-04-27T02:43:57;99299.97;;;3.81;80.83
66627;BME280;53498;50.422;14.912;2023-04-27T02:46:23;99300.81;;;3.80;80.72
66627;BME280;53498;50.422;14.912;2023-04-27T02:48:48;99310.56;;;3.91;81.67
66627;BME280;53498;50.422;14.912;2023-04-27T02:51:14;99310.75;;;3.98;80.51
66627;BME280;53498;50.422;14.912;2023-04-27T02:53:39;99310.94;;;4.04;80.57
66627;BME280;53498;50.422;14.912;2023-04-27T02:56:05;99314.53;;;3.80;81.47
66627;BME280;53498;50.422;14.912;2023-04-27T02:58:31;99321.56;;;3.86;83.12
66627;BME280;53498;50.422;14.912;2023-04-27T03:00:56;99320.63;;;3.55;84.91
66627;BME280;53498;50.422;14.912;2023-04-27T03:03:22;99309.97;;;3.71;84.95
66627;BME280;53498;50.422;14.912;2023-04-27T03:05:48;99317.28;;;3.86;85.76
66627;BME280;53498;50.422;14.912;2023-04-27T03:08:14;99309.03;;;3.97;85.12
66627;BME280;53498;50.422;14.912;2023-04-27T03:10:40;99313.25;;;3.94;85.91
66627;BME280;53498;50.422;14.912;2023-04-27T03:13:08;99304.47;;;3.88;86.07
66627;BME280;53498;50.422;14.912;2023-04-27T03:15:34;99310.47;;;3.88;86.14
66627;BME280;53498;50.422;14.912;2023-04-27T03:18:00;99309.50;;;3.85;86.43
66627;BME280;53498;50.422;14.912;2023-04-27T03:20:25;99311.59;;;3.97;87.48
66627;BME280;53498;50.422;14.912;2023-04-27T03:22:51;99315.13;;;4.00;85.76
66627;BME280;53498;50.422;14.912;2023-04-27T03:25:16;99324.38;;;3.93;85.51
66627;BME280;53498;50.422;14.912;2023-04-27T03:27:42;99326.66;;;3.84;84.69
66627;BME280;53498;50.422;14.912;2023-04-27T03:30:08;99324.63;;;3.74;85.88
66627;BME280;53498;50.422;14.912;2023-04-27T03:32:34;99324.34;;;3.65;86.76
66627;BME280;53498;50.422;14.912;2023-04-27T03:34:59;99327.22;;;3.74;86.75
66627;BME280;53498;50.422;14.912;2023-04-27T03:37:25;99327.41;;;3.80;87.61
66627;BME280;53498;50.422;14.912;2023-04-27T03:39:51;99327.22;;;3.74;86.99
66627;BME280;53498;50.422;14.912;2023-04-27T03:42:17;99327.31;;;3.77;87.33
66627;BME280;53498;50.422;14.912;2023-04-27T03:44:42;99332.16;;;3.68;85.92
66627;BME280;53498;50.422;14.912;2023-04-27T03:47:08;99338.94;;;3.66;85.49
66627;BME280;53498;50.422;14.912;2023-04-27T03:49:34;99337.44;;;3.45;86.88
66627;BME280;53498;50.422;14.912;2023-04-27T03:52:01;99337.75;;;3.55;86.48
66627;BME280;53498;50.422;14.912;2023-04-27T03:54:27;99345.16;;;3.45;86.33
66627;BME280;53498;50.422;14.912;2023-04-27T03:56:53;99349.28;;;3.40;86.76
66627;BME280;53498;50.422;14.912;2023-04-27T03:59:18;99342.75;;;3.24;87.59
66627;BME280;53498;50.422;14.912;2023-04-27T04:01:44;99348.97;;;3.06;87.42
66627;BME280;53498;50.422;14.912;2023-04-27T04:04:09;99345.09;;;3.18;87.74
66627;BME280;53498;50.422;14.912;2023-04-27T04:06:35;99349.69;;;3.27;87.48
66627;BME280;53498;50.422;14.912;2023-04-27T04:09:01;99350.66;;;3.31;87.41
66627;BME280;53498;50.422;14.912;2023-04-27T04:11:28;99349.28;;;3.15;86.75
66627;BME280;53498;50.422;14.912;2023-04-27T04:13:54;99352.88;;;3.20;87.79
66627;BME280;53498;50.422;14.912;2023-04-27T04:16:19;99360.38;;;3.14;87.71
66627;BME280;53498;50.422;14.912;2023-04-27T04:18:45;99357.00;;;3.15;88.10
66627;BME280;53498;50.422;14.912;2023-04-27T04:21:11;99359.66;;;3.18;87.42
66627;BME280;53498;50.422;14.912;2023-04-27T04:23:36;99368.66;;;3.31;85.73
66627;BME280;53498;50.422;14.912;2023-04-27T04:26:02;99369.84;;;3.40;84.70
66627;BME280;53498;50.422;14.912;2023-04-27T04:28:28;99372.00;;;3.28;83.80
66627;BME280;53498;50.422;14.912;2023-04-27T04:30:55;99371.00;;;3.23;83.82
66627;BME280;53498;50.422;14.912;2023-04-27T04:33:21;99377.09;;;3.27;83.33
66627;BME280;53498;50.422;14.912;2023-04-27T04:35:46;99375.75;;;3.38;83.67
66627;BME280;53498;50.422;14.912;2023-04-27T04:38:12;99385.47;;;3.46;82.95
66627;BME280;53498;50.422;14.912;2023-04-27T04:40:38;99382.75;;;3.42;83.26
66627;BME280;53498;50.422;14.912;2023-04-27T04:43:04;99385.91;;;3.33;82.72
66627;BME280;53498;50.422;14.912;2023-04-27T04:45:30;99387.53;;;3.31;82.97
66627;BME280;53498;50.422;14.912;2023-04-27T04:47:55;99391.47;;;3.45;83.22
66627;BME280;53498;50.422;14.912;2023-04-27T04:50:21;99388.38;;;3.57;82.21
66627;BME280;53498;50.422;14.912;2023-04-27T04:55:41;99394.78;;;3.68;81.06
66627;BME280;53498;50.422;14.912;2023-04-27T04:58:07;99390.59;;;3.72;79.53
66627;BME280;53498;50.422;14.912;2023-04-27T05:04:39;99400.56;;;3.88;78.41
66627;BME280;53498;50.422;14.912;2023-04-27T05:07:05;99403.97;;;3.87;78.18
66627;BME280;53498;50.422;14.912;2023-04-27T05:09:31;99404.78;;;3.86;77.13
66627;BME280;53498;50.422;14.912;2023-04-27T05:11:56;99405.94;;;3.69;78.38
66627;BME280;53498;50.422;14.912;2023-04-27T05:14:22;99403.66;;;3.78;77.51
66627;BME280;53498;50.422;14.912;2023-04-27T05:16:48;99405.13;;;3.70;78.46
66627;BME280;53498;50.422;14.912;2023-04-27T05:19:15;99400.53;;;4.14;75.97
66627;BME280;53498;50.422;14.912;2023-04-27T05:21:43;99402.31;;;4.45;75.54
66627;BME280;53498;50.422;14.912;2023-04-27T05:24:10;99406.84;;;4.54;74.18
66627;BME280;53498;50.422;14.912;2023-04-27T05:26:37;99408.53;;;4.52;74.22
66627;BME280;53498;50.422;14.912;2023-04-27T05:29:03;99406.84;;;4.25;74.85
66627;BME280;53498;50.422;14.912;2023-04-27T05:31:28;99402.22;;;4.72;74.53
66627;BME280;53498;50.422;14.912;2023-04-27T05:37:34;99408.88;;;4.64;72.45
66627;BME280;53498;50.422;14.912;2023-04-27T05:40:00;99407.63;;;4.80;72.71
66627;BME280;53498;50.422;14.912;2023-04-27T05:42:26;99404.72;;;4.99;71.98
66627;BME280;53498;50.422;14.912;2023-04-27T05:48:35;99403.53;;;5.18;71.16
66627;BME280;53498;50.422;14.912;2023-04-27T05:51:02;99408.34;;;5.06;70.93
66627;BME280;53498;50.422;14.912;2023-04-27T05:53:28;99415.69;;;4.62;71.92
66627;BME280;53498;50.422;14.912;2023-04-27T05:55:55;99420.00;;;4.63;73.27
66627;BME280;53498;50.422;14.912;2023-04-27T05:58:23;99418.19;;;4.59;73.46
66627;BME280;53498;50.422;14.912;2023-04-27T06:00:48;99414.09;;;4.96;72.51
66627;BME280;53498;50.422;14.912;2023-04-27T06:03:14;99408.56;;;4.83;72.32
66627;BME280;53498;50.422;14.912;2023-04-27T06:05:40;99409.09;;;5.02;72.87
66627;BME280;53498;50.422;14.912;2023-04-27T06:08:06;99404.41;;;5.52;73.75
66627;BME280;53498;50.422;14.912;2023-04-27T06:10:32;99407.56;;;5.75;70.06
66627;BME280;53498;50.422;14.912;2023-04-27T06:12:58;99410.00;;;6.03;69.55
66627;BME280;53498;50.422;14.912;2023-04-27T06:15:24;99408.41;;;6.48;67.06
66627;BME280;53498;50.422;14.912;2023-04-27T06:17:49;99404.53;;;6.28;67.47
66627;BME280;53498;50.422;14.912;2023-04-27T06:20:15;99407.69;;;5.81;69.64
66627;BME280;53498;50.422;14.912;2023-04-27T06:22:41;99404.63;;;5.28;70.73
66627;BME280;53498;50.422;14.912;2023-04-27T06:25:07;99407.66;;;5.79;69.50
66627;BME280;53498;50.422;14.912;2023-04-27T06:27:33;99409.63;;;6.26;67.64
66627;BME280;53498;50.422;14.912;2023-04-27T06:29:59;99402.75;;;6.64;65.68
66627;BME280;53498;50.422;14.912;2023-04-27T06:32:24;99407.91;;;6.64;65.53
66627;BME280;53498;50.422;14.912;2023-04-27T06:34:50;99401.03;;;6.65;66.61
66627;BME280;53498;50.422;14.912;2023-04-27T06:37:16;99411.25;;;6.60;65.96
66627;BME280;53498;50.422;14.912;2023-04-27T06:39:44;99418.13;;;6.58;66.96
66627;BME280;53498;50.422;14.912;2023-04-27T06:42:10;99414.13;;;6.33;66.68
66627;BME280;53498;50.422;14.912;2023-04-27T06:44:37;99411.31;;;5.88;68.15
66627;BME280;53498;50.422;14.912;2023-04-27T06:47:02;99412.56;;;6.03;68.63
66627;BME280;53498;50.422;14.912;2023-04-27T06:49:29;99416.50;;;6.24;68.31
66627;BME280;53498;50.422;14.912;2023-04-27T06:51:55;99412.81;;;6.52;67.33
66627;BME280;53498;50.422;14.912;2023-04-27T06:54:21;99409.91;;;6.78;65.77
66627;BME280;53498;50.422;14.912;2023-04-27T06:56:47;99409.06;;;6.79;66.37
66627;BME280;53498;50.422;14.912;2023-04-27T06:59:13;99408.66;;;7.01;65.72
66627;BME280;53498;50.422;14.912;2023-04-27T07:01:38;99407.63;;;7.37;64.01
66627;BME280;53498;50.422;14.912;2023-04-27T07:04:04;99408.59;;;7.45;63.56
66627;BME280;53498;50.422;14.912;2023-04-27T07:06:30;99411.09;;;6.93;63.19
66627;BME280;53498;50.422;14.912;2023-04-27T07:08:57;99412.88;;;6.98;64.14
66627;BME280;53498;50.422;14.912;2023-04-27T07:11:23;99408.00;;;6.69;64.38
66627;BME280;53498;50.422;14.912;2023-04-27T07:13:49;99410.91;;;7.30;64.96
66627;BME280;53498;50.422;14.912;2023-04-27T07:16:15;99411.63;;;7.68;62.94
66627;BME280;53498;50.422;14.912;2023-04-27T07:18:41;99410.50;;;8.05;62.69
66627;BME280;53498;50.422;14.912;2023-04-27T07:21:06;99412.19;;;8.05;60.38
66627;BME280;53498;50.422;14.912;2023-04-27T07:23:32;99408.72;;;8.04;60.39
66627;BME280;53498;50.422;14.912;2023-04-27T07:25:57;99420.75;;;7.99;61.40
66627;BME280;53498;50.422;14.912;2023-04-27T07:28:24;99414.47;;;7.83;62.60
66627;BME280;53498;50.422;14.912;2023-04-27T07:30:49;99404.38;;;8.00;59.88
66627;BME280;53498;50.422;14.912;2023-04-27T07:33:16;99406.97;;;8.60;59.36
66627;BME280;53498;50.422;14.912;2023-04-27T07:35:42;99415.19;;;8.31;56.35
66627;BME280;53498;50.422;14.912;2023-04-27T07:38:08;99416.97;;;8.35;56.92
66627;BME280;53498;50.422;14.912;2023-04-27T07:40:33;99420.94;;;8.69;55.57
66627;BME280;53498;50.422;14.912;2023-04-27T07:42:59;99422.75;;;8.75;56.94
66627;BME280;53498;50.422;14.912;2023-04-27T07:45:25;99415.78;;;8.72;54.37
66627;BME280;53498;50.422;14.912;2023-04-27T07:47:58;99414.22;;;8.85;56.00
66627;BME280;53498;50.422;14.912;2023-04-27T07:50:29;99419.81;;;8.50;54.12
66627;BME280;53498;50.422;14.912;2023-04-27T07:52:56;99413.31;;;8.83;53.44
66627;BME280;53498;50.422;14.912;2023-04-27T07:55:22;99414.03;;;8.68;51.46
66627;BME280;53498;50.422;14.912;2023-04-27T07:57:52;99416.50;;;8.59;50.96
66627;BME280;53498;50.422;14.912;2023-04-27T08:00:18;99419.00;;;8.54;50.06
66627;BME280;53498;50.422;14.912;2023-04-27T08:02:44;99405.88;;;9.11;49.00
66627;BME280;53498;50.422;14.912;2023-04-27T08:05:10;99402.44;;;9.13;49.07
66627;BME280;53498;50.422;14.912;2023-04-27T08:07:35;99411.84;;;9.03;47.42
66627;BME280;53498;50.422;14.912;2023-04-27T08:10:01;99408.94;;;9.58;47.00
66627;BME280;53498;50.422;14.912;2023-04-27T08:12:27;99408.28;;;9.79;46.81
66627;BME280;53498;50.422;14.912;2023-04-27T08:14:52;99414.69;;;10.24;46.94
66627;BME280;53498;50.422;14.912;2023-04-27T08:17:18;99408.66;;;10.25;45.77
66627;BME280;53498;50.422;14.912;2023-04-27T08:19:46;99409.47;;;10.24;45.97
66627;BME280;53498;50.422;14.912;2023-04-27T08:22:12;99402.41;;;10.00;44.88
66627;BME280;53498;50.422;14.912;2023-04-27T08:24:37;99414.56;;;10.04;44.74
66627;BME280;53498;50.422;14.912;2023-04-27T08:27:05;99409.31;;;10.00;45.20
66627;BME280;53498;50.422;14.912;2023-04-27T08:29:30;99404.63;;;10.76;44.81
66627;BME280;53498;50.422;14.912;2023-04-27T08:31:58;99406.31;;;10.63;43.05
66627;BME280;53498;50.422;14.912;2023-04-27T08:34:24;99413.84;;;10.25;43.00
66627;BME280;53498;50.422;14.912;2023-04-27T08:36:50;99414.66;;;10.16;43.14
66627;BME280;53498;50.422;14.912;2023-04-27T08:39:16;99417.03;;;9.87;44.48
66627;BME280;53498;50.422;14.912;2023-04-27T08:41:42;99415.00;;;9.59;44.67
66627;BME280;53498;50.422;14.912;2023-04-27T08:44:09;99418.19;;;9.30;45.53
66627;BME280;53498;50.422;14.912;2023-04-27T08:46:36;99420.97;;;9.48;45.96
66627;BME280;53498;50.422;14.912;2023-04-27T08:49:01;99418.50;;;9.61;45.80
66627;BME280;53498;50.422;14.912;2023-04-27T08:51:28;99414.44;;;9.87;45.32
66627;BME280;53498;50.422;14.912;2023-04-27T08:53:55;99414.28;;;9.73;46.48
66627;BME280;53498;50.422;14.912;2023-04-27T08:56:24;99417.03;;;9.87;46.62
66627;BME280;53498;50.422;14.912;2023-04-27T08:58:50;99416.97;;;9.81;47.49
66627;BME280;53498;50.422;14.912;2023-04-27T09:01:16;99414.69;;;10.23;47.22
66627;BME280;53498;50.422;14.912;2023-04-27T09:03:42;99413.03;;;10.34;46.32
66627;BME280;53498;50.422;14.912;2023-04-27T09:06:12;99408.91;;;10.63;45.51
66627;BME280;53498;50.422;14.912;2023-04-27T09:11:06;99420.63;;;10.05;46.32
66627;BME280;53498;50.422;14.912;2023-04-27T09:13:36;99420.84;;;10.34;45.87
66627;BME280;53498;50.422;14.912;2023-04-27T09:16:02;99422.56;;;10.30;45.64
66627;BME280;53498;50.422;14.912;2023-04-27T09:18:28;99407.59;;;10.02;46.25
66627;BME280;53498;50.422;14.912;2023-04-27T09:20:53;99419.78;;;10.12;46.61
66627;BME280;53498;50.422;14.912;2023-04-27T09:25:58;99413.09;;;10.40;45.99
66627;BME280;53498;50.422;14.912;2023-04-27T09:28:29;99416.56;;;10.42;44.89
66627;BME280;53498;50.422;14.912;2023-04-27T09:30:58;99412.72;;;9.92;45.64
66627;BME280;53498;50.422;14.912;2023-04-27T09:33:27;99407.97;;;9.45;45.53
66627;BME280;53498;50.422;14.912;2023-04-27T09:36:24;99410.88;;;9.81;45.69
66627;BME280;53498;50.422;14.912;2023-04-27T09:38:51;99403.53;;;10.31;44.30
66627;BME280;53498;50.422;14.912;2023-04-27T09:41:17;99408.97;;;10.76;44.15
66627;BME280;53498;50.422;14.912;2023-04-27T09:43:44;99411.41;;;10.50;44.08
66627;BME280;53498;50.422;14.912;2023-04-27T09:46:14;99401.94;;;10.58;44.26
66627;BME280;53498;50.422;14.912;2023-04-27T09:48:40;99410.47;;;10.40;43.39
66627;BME280;53498;50.422;14.912;2023-04-27T09:51:07;99412.31;;;10.50;44.32
66627;BME280;53498;50.422;14.912;2023-04-27T10:01:50;99404.44;;;10.41;43.10
66627;BME280;53498;50.422;14.912;2023-04-27T10:09:35;99404.16;;;10.04;43.70
66627;BME280;53498;50.422;14.912;2023-04-27T10:17:31;99398.34;;;10.34;44.79
66627;BME280;53498;50.422;14.912;2023-04-27T10:19:59;99400.25;;;10.66;44.98
66627;BME280;53498;50.422;14.912;2023-04-27T10:22:36;99392.31;;;10.43;44.54
66627;BME280;53498;50.422;14.912;2023-04-27T10:25:18;99386.75;;;9.94;44.32
66627;BME280;53498;50.422;14.912;2023-04-27T10:27:51;99386.25;;;10.46;44.47
66627;BME280;53498;50.422;14.912;2023-04-27T10:30:18;99385.53;;;10.76;44.74
66627;BME280;53498;50.422;14.912;2023-04-27T10:32:55;99389.88;;;10.72;42.71
66627;BME280;53498;50.422;14.912;2023-04-27T10:35:30;99383.84;;;10.85;44.00
66627;BME280;53498;50.422;14.912;2023-04-27T10:38:27;99382.22;;;11.17;44.12
66627;BME280;53498;50.422;14.912;2023-04-27T10:40:58;99388.22;;;10.99;42.51
66627;BME280;53498;50.422;14.912;2023-04-27T10:43:38;99387.25;;;10.74;43.41
66627;BME280;53498;50.422;14.912;2023-04-27T10:46:12;99379.13;;;10.15;42.81
66627;BME280;53498;50.422;14.912;2023-04-27T10:48:39;99378.47;;;10.47;43.27
66627;BME280;53498;50.422;14.912;2023-04-27T10:54:02;99378.75;;;11.30;42.17
66627;BME280;53498;50.422;14.912;2023-04-27T10:56:27;99380.47;;;11.16;40.23
66627;BME280;53498;50.422;14.912;2023-04-27T10:58:53;99381.38;;;11.44;41.09
66627;BME280;53498;50.422;14.912;2023-04-27T11:01:25;99378.78;;;11.34;39.97
66627;BME280;53498;50.422;14.912;2023-04-27T11:06:56;99385.75;;;11.71;39.85
66627;BME280;53498;50.422;14.912;2023-04-27T11:09:27;99378.81;;;11.65;40.90
66627;BME280;53498;50.422;14.912;2023-04-27T11:11:53;99380.50;;;11.32;39.49
66627;BME280;53498;50.422;14.912;2023-04-27T11:14:19;99373.63;;;11.76;38.95
66627;BME280;53498;50.422;14.912;2023-04-27T11:16:46;99374.47;;;11.76;38.38
66627;BME280;53498;50.422;14.912;2023-04-27T11:19:12;99377.09;;;11.96;38.02
66627;BME280;53498;50.422;14.912;2023-04-27T11:21:38;99369.25;;;11.70;39.36
66627;BME280;53498;50.422;14.912;2023-04-27T11:24:05;99369.19;;;12.38;38.27
66627;BME280;53498;50.422;14.912;2023-04-27T11:26:31;99371.78;;;12.50;36.90
66627;BME280;53498;50.422;14.912;2023-04-27T11:31:27;99372.75;;;12.00;38.17
66627;BME280;53498;50.422;14.912;2023-04-27T11:33:54;99374.44;;;11.43;37.09
66627;BME280;53498;50.422;14.912;2023-04-27T11:36:21;99370.97;;;11.47;37.83
66627;BME280;53498;50.422;14.912;2023-04-27T11:38:47;99374.50;;;11.63;37.82
66627;BME280;53498;50.422;14.912;2023-04-27T11:41:13;99378.81;;;11.67;38.15
66627;BME280;53498;50.422;14.912;2023-04-27T11:43:41;99377.91;;;11.46;37.63
66627;BME280;53498;50.422;14.912;2023-04-27T11:46:14;99372.66;;;11.17;37.79
66627;BME280;53498;50.422;14.912;2023-04-27T11:48:39;99374.44;;;11.40;37.96
66627;BME280;53498;50.422;14.912;2023-04-27T11:51:08;99376.22;;;11.93;39.06
66627;BME280;53498;50.422;14.912;2023-04-27T11:53:36;99378.00;;;11.88;37.86
66627;BME280;53498;50.422;14.912;2023-04-27T11:56:03;99373.63;;;12.05;38.14
66627;BME280;53498;50.422;14.912;2023-04-27T11:58:38;99377.09;;;12.07;37.69
66627;BME280;53498;50.422;14.912;2023-04-27T12:01:05;99381.44;;;11.96;36.42
66627;BME280;53498;50.422;14.912;2023-04-27T12:03:31;99377.13;;;11.86;35.92
66627;BME280;53498;50.422;14.912;2023-04-27T12:05:56;99374.50;;;11.98;36.84
66627;BME280;53498;50.422;14.912;2023-04-27T12:08:23;99373.66;;;12.00;37.03
66627;BME280;53498;50.422;14.912;2023-04-27T12:10:48;99374.50;;;12.01;37.04
66627;BME280;53498;50.422;14.912;2023-04-27T12:13:15;99377.00;;;12.44;35.85
66627;BME280;53498;50.422;14.912;2023-04-27T12:15:41;99365.53;;;12.95;37.17
66627;BME280;53498;50.422;14.912;2023-04-27T12:18:07;99358.56;;;12.98;35.94
66627;BME280;53498;50.422;14.912;2023-04-27T12:20:33;99367.38;;;12.73;34.24
66627;BME280;53498;50.422;14.912;2023-04-27T12:22:59;99362.28;;;12.27;35.64
66627;BME280;53498;50.422;14.912;2023-04-27T12:25:25;99356.97;;;12.58;33.66
66627;BME280;53498;50.422;14.912;2023-04-27T12:27:50;99357.00;;;12.52;35.90
66627;BME280;53498;50.422;14.912;2023-04-27T12:30:16;99354.13;;;13.12;36.02
66627;BME280;53498;50.422;14.912;2023-04-27T12:32:42;99355.88;;;13.08;35.62
66627;BME280;53498;50.422;14.912;2023-04-27T12:35:08;99361.03;;;13.25;36.33
66627;BME280;53498;50.422;14.912;2023-04-27T12:37:35;99355.00;;;13.11;34.18
66627;BME280;53498;50.422;14.912;2023-04-27T12:40:01;99354.31;;;12.72;34.79
66627;BME280;53498;50.422;14.912;2023-04-27T12:42:30;99352.56;;;12.79;35.60
66627;BME280;53498;50.422;14.912;2023-04-27T12:44:55;99357.66;;;13.00;34.17
66627;BME280;53498;50.422;14.912;2023-04-27T12:47:21;99355.00;;;13.09;34.23
66627;BME280;53498;50.422;14.912;2023-04-27T12:49:47;99344.72;;;12.82;34.79
66627;BME280;53498;50.422;14.912;2023-04-27T12:52:12;99356.81;;;13.01;34.17
66627;BME280;53498;50.422;14.912;2023-04-27T12:54:38;99346.47;;;12.73;32.81
66627;BME280;53498;50.422;14.912;2023-04-27T12:57:05;99346.47;;;12.73;35.04
66627;BME280;53498;50.422;14.912;2023-04-27T12:59:32;99341.16;;;12.95;35.05
66627;BME280;53498;50.422;14.912;2023-04-27T13:01:59;99346.25;;;13.26;33.86
66627;BME280;53498;50.422;14.912;2023-04-27T13:04:25;99353.31;;;12.99;33.93
66627;BME280;53498;50.422;14.912;2023-04-27T13:06:51;99348.03;;;13.08;33.26
66627;BME280;53498;50.422;14.912;2023-04-27T13:09:17;99349.94;;;12.77;34.30
66627;BME280;53498;50.422;14.912;2023-04-27T13:11:42;99358.69;;;12.68;35.17
66627;BME280;53498;50.422;14.912;2023-04-27T13:14:08;99359.59;;;12.57;35.91
66627;BME280;53498;50.422;14.912;2023-04-27T13:16:38;99362.19;;;12.64;35.54
66627;BME280;53498;50.422;14.912;2023-04-27T13:19:04;99364.88;;;12.31;35.95
66627;BME280;53498;50.422;14.912;2023-04-27T13:21:30;99369.25;;;12.09;35.09
66627;BME280;53498;50.422;14.912;2023-04-27T13:23:55;99367.56;;;11.88;36.11
66627;BME280;53498;50.422;14.912;2023-04-27T13:26:22;99363.22;;;11.88;35.99
66627;BME280;53498;50.422;14.912;2023-04-27T13:28:48;99359.72;;;11.98;37.58
66627;BME280;53498;50.422;14.912;2023-04-27T13:31:16;99364.06;;;11.98;37.85
66627;BME280;53498;50.422;14.912;2023-04-27T13:33:43;99360.59;;;11.90;36.84
66627;BME280;53498;50.422;14.912;2023-04-27T13:36:09;99360.56;;;12.11;38.11
66627;BME280;53498;50.422;14.912;2023-04-27T13:38:35;99358.88;;;11.98;37.18
66627;BME280;53498;50.422;14.912;2023-04-27T13:41:02;99364.06;;;12.04;38.00